Wright Patterson Air Force Base
KFFO : now visible

Airfield :











YOU CAN JOIN US ON...

 
LOGIN :

Register | Disclaimer

   EN    FR    IT 

 









Legend :    VFR   Marginal VFR   IFR   Intensive IFR   Very Intensive IFR
Visi :
Ceiling :
>= 8 km
>= 3000ft
5 to 8 km
1000 to 3000 ft
1500m to 5 km
500 to 1000 ft
800 to 1500m
200 to 500 ft
< 800m
< 200 ft
Symbols :   Thunderstorms  Fog  Heavy snow  Heavy precipitations  Wind > 20 kt






- Airport Elevation : 823 ft


KFFO - Wright Patterson Air Force Base

METAR N/A
TAF COR TAF KFFO
Valid from the 26 at 19:00 until the 28 at 01:00 UTC


261938Z 2619/2801 25012KT 9999 OVC015 620204 QNH2975INS
TEMPO 2619/2622 25015G25KT -RA 510012
BECMG 2703/2704 29006KT 9999 OVC009 620122 QNH3003INS
BECMG 2714/2715 04009KT 9999 OVC015 620151 QNH3012INS
BECMG 2723/2724 36012KT 9000 -SN BKN015 OVC025 620153 QNH3016INS TX06/2619Z TNM02/2713Z
KZID FIR / North America



MET'MAP, your aeronautical weather chart ! - Copyright ORBIFLY December 2007 - Disclaimer

ORBIFLY MET'MAP TEAM :

Programming & Development : Alexandra Zaïnal
Concept & original design : Baudouin d'Aumeries
Assistance for programming : Marc-Olivier Méhu
Technical & hardware support : Manuel Goepfert

Contact : metmap@orbifly.com




SOURCES & CREDITS :

   NOAA       Earth
Advisory